createdAt,value
2023-01-29T00:00:24.730Z,15.50
2023-01-29T00:01:24.748Z,16.50
2023-01-29T00:02:24.724Z,15.60
2023-01-29T00:03:24.886Z,15.30
2023-01-29T00:04:24.619Z,15.40
2023-01-29T00:05:28.631Z,14.90
2023-01-29T00:06:24.697Z,15.00
2023-01-29T00:07:24.646Z,15.40
2023-01-29T00:08:24.724Z,15.30
2023-01-29T00:09:24.480Z,15.30
2023-01-29T00:10:24.690Z,15.50
2023-01-29T00:11:24.655Z,14.90
2023-01-29T00:12:24.623Z,15.40
2023-01-29T00:13:24.536Z,15.20
2023-01-29T00:14:24.617Z,15.60
2023-01-29T00:15:24.689Z,15.20
2023-01-29T00:16:24.494Z,15.50
2023-01-29T00:17:24.607Z,15.80
2023-01-29T00:18:24.596Z,14.40
2023-01-29T00:19:24.510Z,14.80
2023-01-29T00:20:24.639Z,14.50
2023-01-29T00:21:24.546Z,14.80
2023-01-29T00:22:24.516Z,14.40
2023-01-29T00:23:24.493Z,14.30
2023-01-29T00:24:24.429Z,14.60
2023-01-29T00:25:24.460Z,13.70
2023-01-29T00:26:24.591Z,14.10
2023-01-29T00:27:24.480Z,14.90
2023-01-29T00:28:24.462Z,14.10
2023-01-29T00:29:24.358Z,14.70
2023-01-29T00:30:24.245Z,14.60
2023-01-29T00:31:24.656Z,14.60
2023-01-29T00:32:24.489Z,14.80
2023-01-29T00:33:24.369Z,15.40
2023-01-29T00:34:24.370Z,15.30
2023-01-29T00:35:24.439Z,16.10
2023-01-29T00:36:24.419Z,15.50
2023-01-29T00:37:24.399Z,15.10
2023-01-29T00:38:24.371Z,15.00
2023-01-29T00:39:29.390Z,15.90
2023-01-29T00:40:24.308Z,15.40
2023-01-29T00:41:24.370Z,16.10
2023-01-29T00:42:24.344Z,16.00
2023-01-29T00:43:24.321Z,15.60
2023-01-29T00:44:24.293Z,15.50
2023-01-29T00:45:24.342Z,15.80
2023-01-29T00:46:24.340Z,15.20
2023-01-29T00:47:24.363Z,15.80
2023-01-29T00:48:24.310Z,15.70
2023-01-29T00:49:24.266Z,16.20
2023-01-29T00:50:24.245Z,15.90
2023-01-29T00:51:24.227Z,16.00
2023-01-29T00:52:24.366Z,15.40
2023-01-29T00:53:24.190Z,15.70
2023-01-29T00:54:24.179Z,16.00
2023-01-29T00:55:24.344Z,15.80
2023-01-29T00:56:24.172Z,15.70
2023-01-29T00:57:24.181Z,15.80
2023-01-29T00:58:24.334Z,15.60
2023-01-29T00:59:24.170Z,15.20
2023-01-29T01:00:24.187Z,15.90
2023-01-29T01:01:24.219Z,15.20
2023-01-29T01:02:24.212Z,15.90
2023-01-29T01:03:24.165Z,15.90
2023-01-29T01:04:24.203Z,15.90
2023-01-29T01:05:24.175Z,15.40
2023-01-29T01:06:24.087Z,15.90
2023-01-29T01:07:24.106Z,15.20
2023-01-29T01:08:24.102Z,15.80
2023-01-29T01:09:24.185Z,15.00
2023-01-29T01:10:24.214Z,15.00
2023-01-29T01:11:24.026Z,15.50
2023-01-29T01:12:24.045Z,15.00
2023-01-29T01:13:24.058Z,15.00
2023-01-29T01:14:24.046Z,15.10
2023-01-29T01:15:24.116Z,15.30
2023-01-29T01:16:24.056Z,15.50
2023-01-29T01:17:24.044Z,14.70
2023-01-29T01:18:24.044Z,14.70
2023-01-29T01:19:24.060Z,14.50
2023-01-29T01:20:24.115Z,14.20
2023-01-29T01:21:24.082Z,15.20
2023-01-29T01:22:24.019Z,15.20
2023-01-29T01:23:23.958Z,14.90
2023-01-29T01:24:23.931Z,16.00
2023-01-29T01:25:24.065Z,15.20
2023-01-29T01:26:24.000Z,15.00
2023-01-29T01:27:23.985Z,15.20
2023-01-29T01:28:24.055Z,16.20
2023-01-29T01:29:23.778Z,15.80
2023-01-29T01:30:23.962Z,15.80
2023-01-29T01:31:23.917Z,15.80
2023-01-29T01:32:24.025Z,15.40
2023-01-29T01:33:23.900Z,15.50
2023-01-29T01:34:23.934Z,15.90
2023-01-29T01:35:23.943Z,16.10
2023-01-29T01:36:23.885Z,15.80
2023-01-29T01:37:23.908Z,15.70
2023-01-29T01:38:23.837Z,16.00
2023-01-29T01:39:23.865Z,15.90
2023-01-29T01:40:23.946Z,15.50
2023-01-29T01:41:23.936Z,16.00
2023-01-29T01:42:23.939Z,16.30
2023-01-29T01:43:23.845Z,16.30
2023-01-29T01:44:23.829Z,16.10
2023-01-29T01:45:23.825Z,16.70
2023-01-29T01:46:23.818Z,17.20
2023-01-29T01:47:23.595Z,16.80
2023-01-29T01:48:23.615Z,16.50
2023-01-29T01:49:23.598Z,16.70
2023-01-29T01:50:23.594Z,16.30
2023-01-29T01:51:23.571Z,16.30
2023-01-29T01:52:23.708Z,16.00
2023-01-29T01:53:23.844Z,16.20
2023-01-29T01:54:23.726Z,17.00
2023-01-29T01:55:23.686Z,16.60
2023-01-29T01:56:23.666Z,16.40
2023-01-29T01:57:23.717Z,17.10
2023-01-29T01:58:23.699Z,17.20
2023-01-29T01:59:23.774Z,16.60
2023-01-29T02:00:23.699Z,16.40
2023-01-29T02:01:25.698Z,16.40
2023-01-29T02:02:23.695Z,16.60
2023-01-29T02:03:23.596Z,17.10
2023-01-29T02:04:23.697Z,17.20
2023-01-29T02:05:23.627Z,16.20
2023-01-29T02:06:23.642Z,16.60
2023-01-29T02:07:23.643Z,16.80
2023-01-29T02:08:23.499Z,16.50
2023-01-29T02:09:23.649Z,16.90
2023-01-29T02:10:23.491Z,16.20
2023-01-29T02:11:23.475Z,17.10
2023-01-29T02:12:23.480Z,17.50
2023-01-29T02:13:23.577Z,16.50
2023-01-29T02:14:23.547Z,16.90
2023-01-29T02:15:23.521Z,15.90
2023-01-29T02:16:23.512Z,17.10
2023-01-29T02:17:23.629Z,16.60
2023-01-29T02:18:23.480Z,17.30
2023-01-29T02:19:23.465Z,16.40
2023-01-29T02:20:23.619Z,16.00
2023-01-29T02:21:23.505Z,17.20
2023-01-29T02:22:23.490Z,16.70
2023-01-29T02:23:23.466Z,16.30
2023-01-29T02:24:23.277Z,16.10
2023-01-29T02:25:23.523Z,16.40
2023-01-29T02:26:23.490Z,16.40
2023-01-29T02:27:23.463Z,16.40
2023-01-29T02:28:23.432Z,16.30
2023-01-29T02:29:23.323Z,16.70
2023-01-29T02:30:23.451Z,17.00
2023-01-29T02:31:23.536Z,16.30
2023-01-29T02:32:23.358Z,16.20
2023-01-29T02:33:23.356Z,16.60
2023-01-29T02:34:23.369Z,17.00
2023-01-29T02:35:23.181Z,16.50
2023-01-29T02:36:23.331Z,16.90
2023-01-29T02:37:23.301Z,17.00
2023-01-29T02:38:23.363Z,16.40
2023-01-29T02:39:23.346Z,16.20
2023-01-29T02:40:23.414Z,16.70
2023-01-29T02:41:23.311Z,16.80
2023-01-29T02:42:23.376Z,16.80
2023-01-29T02:43:23.275Z,16.40
2023-01-29T02:44:23.286Z,17.00
2023-01-29T02:45:23.243Z,16.60
2023-01-29T02:46:23.373Z,18.00
2023-01-29T02:47:23.267Z,17.10
2023-01-29T02:48:23.223Z,16.50
2023-01-29T02:49:23.028Z,18.10
2023-01-29T02:50:23.252Z,17.80
2023-01-29T02:51:23.210Z,16.70
2023-01-29T02:52:23.248Z,17.30
2023-01-29T02:53:23.085Z,17.90
2023-01-29T02:54:22.992Z,17.30
2023-01-29T02:55:23.068Z,16.60
2023-01-29T02:56:23.072Z,16.80
2023-01-29T02:57:23.146Z,17.10
2023-01-29T02:58:23.106Z,16.70
2023-01-29T02:59:22.967Z,16.40
2023-01-29T03:00:23.049Z,16.20
2023-01-29T03:01:23.161Z,16.50
2023-01-29T03:02:23.111Z,17.40
2023-01-29T03:03:23.159Z,17.00
2023-01-29T03:04:23.151Z,17.00
2023-01-29T03:05:23.145Z,16.60
2023-01-29T03:06:23.047Z,17.50
2023-01-29T03:07:23.020Z,17.10
2023-01-29T03:08:23.008Z,16.90
2023-01-29T03:09:23.069Z,17.80
2023-01-29T03:10:23.059Z,17.10
2023-01-29T03:11:23.027Z,18.00
2023-01-29T03:12:23.000Z,17.50
2023-01-29T03:13:22.986Z,16.60
2023-01-29T03:14:23.058Z,17.60
2023-01-29T03:15:23.040Z,17.30
2023-01-29T03:16:22.990Z,17.20
2023-01-29T03:17:22.944Z,17.40
2023-01-29T03:18:22.929Z,17.00
2023-01-29T03:19:22.915Z,17.40
2023-01-29T03:20:22.977Z,17.20
2023-01-29T03:21:22.872Z,17.80
2023-01-29T03:22:22.864Z,16.80
2023-01-29T03:23:22.748Z,17.00
2023-01-29T03:24:22.890Z,17.70
2023-01-29T03:25:22.976Z,18.00
2023-01-29T03:26:22.873Z,17.60
2023-01-29T03:27:22.859Z,17.90
2023-01-29T03:28:22.851Z,18.30
2023-01-29T03:29:22.827Z,17.80
2023-01-29T03:30:22.890Z,17.70
2023-01-29T03:31:22.872Z,17.90
2023-01-29T03:32:22.840Z,18.10
2023-01-29T03:33:22.822Z,19.30
2023-01-29T03:34:22.927Z,18.80
2023-01-29T03:35:22.774Z,19.00
2023-01-29T03:36:22.868Z,19.00
2023-01-29T03:37:22.843Z,18.90
2023-01-29T03:38:22.804Z,18.90
2023-01-29T03:39:22.762Z,18.50
2023-01-29T03:40:22.750Z,17.90
2023-01-29T03:41:22.723Z,18.90
2023-01-29T03:42:22.851Z,19.80
2023-01-29T03:43:22.678Z,17.90
2023-01-29T03:44:22.658Z,19.10
2023-01-29T03:45:22.688Z,19.30
2023-01-29T03:46:22.681Z,18.60
2023-01-29T03:47:22.827Z,19.00
2023-01-29T03:48:22.695Z,18.40
2023-01-29T03:49:22.589Z,18.30
2023-01-29T03:50:22.581Z,18.30
2023-01-29T03:51:22.646Z,18.50
2023-01-29T03:52:22.593Z,18.10
2023-01-29T03:53:22.555Z,18.10
2023-01-29T03:54:22.570Z,19.50
2023-01-29T03:55:22.544Z,19.50
2023-01-29T03:56:22.520Z,19.30
2023-01-29T03:57:22.605Z,18.60
2023-01-29T03:58:22.494Z,19.20
2023-01-29T03:59:22.591Z,19.70
2023-01-29T04:00:22.719Z,20.20
2023-01-29T04:01:22.612Z,18.60
2023-01-29T04:02:22.566Z,19.70
2023-01-29T04:03:22.634Z,19.70
2023-01-29T04:04:22.662Z,19.50
2023-01-29T04:05:22.560Z,19.70
2023-01-29T04:06:22.548Z,19.50
2023-01-29T04:07:22.629Z,19.30
2023-01-29T04:08:22.619Z,19.90
2023-01-29T04:09:22.423Z,19.70
2023-01-29T04:10:22.427Z,18.70
2023-01-29T04:11:22.406Z,19.20
2023-01-29T04:12:22.392Z,19.50
2023-01-29T04:13:22.454Z,18.80
2023-01-29T04:14:22.551Z,18.80
2023-01-29T04:15:22.456Z,19.80
2023-01-29T04:16:22.492Z,18.70
2023-01-29T04:17:22.450Z,18.70
2023-01-29T04:18:22.516Z,19.00
2023-01-29T04:19:22.426Z,19.00
2023-01-29T04:20:22.498Z,18.40
2023-01-29T04:21:22.407Z,18.10
2023-01-29T04:22:22.398Z,18.70
2023-01-29T04:23:22.281Z,18.70
2023-01-29T04:24:22.389Z,19.50
2023-01-29T04:25:22.448Z,18.30
2023-01-29T04:26:22.355Z,18.20
2023-01-29T04:27:22.321Z,18.30
2023-01-29T04:28:22.385Z,17.30
2023-01-29T04:29:22.433Z,17.90
2023-01-29T04:30:22.229Z,18.30
2023-01-29T04:31:22.393Z,19.00
2023-01-29T04:32:22.386Z,18.80
2023-01-29T04:33:22.289Z,17.90
2023-01-29T04:34:22.440Z,17.90
2023-01-29T04:35:22.352Z,18.50
2023-01-29T04:36:22.509Z,18.40
2023-01-29T04:37:22.286Z,18.70
2023-01-29T04:38:22.304Z,18.50
2023-01-29T04:39:22.266Z,18.70
2023-01-29T04:40:22.354Z,18.50
2023-01-29T04:41:22.257Z,18.00
2023-01-29T04:42:22.239Z,18.50
2023-01-29T04:43:22.235Z,18.90
2023-01-29T04:44:22.477Z,18.00
2023-01-29T04:45:22.394Z,18.20
2023-01-29T04:46:22.315Z,18.90
2023-01-29T04:47:22.316Z,18.20
2023-01-29T04:48:22.204Z,18.50
2023-01-29T04:49:22.190Z,18.60
2023-01-29T04:50:22.158Z,18.80
2023-01-29T04:51:22.194Z,19.40
2023-01-29T04:52:22.117Z,18.70
2023-01-29T04:53:22.120Z,17.80
2023-01-29T04:54:22.088Z,19.60
2023-01-29T04:55:22.087Z,19.20
2023-01-29T04:56:22.077Z,19.70
2023-01-29T04:57:22.079Z,19.00
2023-01-29T04:58:22.120Z,18.90
2023-01-29T04:59:22.093Z,19.80
2023-01-29T05:00:22.049Z,19.90
2023-01-29T05:01:22.029Z,19.40
2023-01-29T05:02:22.055Z,20.80
2023-01-29T05:03:22.087Z,19.20
2023-01-29T05:04:21.949Z,19.20
2023-01-29T05:05:22.029Z,19.50
2023-01-29T05:06:22.029Z,18.20
2023-01-29T05:07:22.016Z,19.30
2023-01-29T05:08:22.100Z,18.40
2023-01-29T05:09:21.945Z,19.80
2023-01-29T05:10:21.942Z,19.60
2023-01-29T05:11:21.939Z,19.30
2023-01-29T05:12:21.932Z,19.70
2023-01-29T05:13:21.929Z,19.80
2023-01-29T05:14:21.918Z,19.30
2023-01-29T05:15:22.005Z,18.90
2023-01-29T05:16:21.953Z,19.00
2023-01-29T05:17:21.861Z,19.50
2023-01-29T05:18:21.856Z,19.70
2023-01-29T05:19:21.942Z,19.80
2023-01-29T05:20:21.847Z,18.90
2023-01-29T05:21:21.859Z,19.00
2023-01-29T05:22:21.873Z,19.80
2023-01-29T05:23:21.940Z,18.80
2023-01-29T05:24:22.046Z,19.10
2023-01-29T05:25:21.794Z,18.90
2023-01-29T05:26:21.814Z,18.80
2023-01-29T05:27:21.823Z,18.90
2023-01-29T05:28:21.822Z,19.40
2023-01-29T05:29:21.906Z,18.80
2023-01-29T05:30:21.807Z,18.10
2023-01-29T05:31:21.864Z,19.00
2023-01-29T05:32:21.744Z,18.30
2023-01-29T05:33:21.727Z,18.40
2023-01-29T05:34:21.831Z,18.30
2023-01-29T05:35:21.568Z,18.60
2023-01-29T05:36:21.711Z,18.70
2023-01-29T05:37:21.695Z,18.90
2023-01-29T05:38:21.696Z,18.50
2023-01-29T05:39:21.760Z,19.60
2023-01-29T05:40:21.775Z,19.20
2023-01-29T05:41:21.462Z,18.10
2023-01-29T05:42:21.655Z,19.50
2023-01-29T05:43:21.651Z,18.90
2023-01-29T05:44:21.639Z,18.90
2023-01-29T05:45:21.641Z,18.90
2023-01-29T05:46:21.766Z,19.90
2023-01-29T05:47:21.618Z,19.50
2023-01-29T05:48:21.607Z,19.70
2023-01-29T05:49:21.615Z,19.30
2023-01-29T05:50:21.593Z,19.60
2023-01-29T05:51:21.585Z,19.10
2023-01-29T05:52:21.669Z,19.40
2023-01-29T05:53:21.618Z,19.50
2023-01-29T05:54:21.534Z,20.20
2023-01-29T05:55:21.544Z,19.20
2023-01-29T05:56:21.552Z,20.60
2023-01-29T05:57:21.554Z,19.90
2023-01-29T05:58:21.630Z,20.10
2023-01-29T05:59:21.528Z,20.40
2023-01-29T06:00:21.502Z,20.50
2023-01-29T06:01:21.517Z,19.80
2023-01-29T06:02:21.589Z,20.80
2023-01-29T06:03:21.441Z,20.10
2023-01-29T06:04:21.555Z,19.80
2023-01-29T06:05:21.435Z,20.10
2023-01-29T06:06:21.556Z,20.50
2023-01-29T06:07:21.447Z,21.40
2023-01-29T06:08:21.396Z,20.70
2023-01-29T06:09:21.191Z,21.50
2023-01-29T06:10:21.380Z,20.40
2023-01-29T06:11:21.407Z,20.90
2023-01-29T06:12:21.361Z,20.90
2023-01-29T06:13:23.556Z,20.70
2023-01-29T06:14:21.315Z,20.30
2023-01-29T06:15:21.308Z,20.60
2023-01-29T06:16:21.388Z,20.10
2023-01-29T06:17:21.177Z,20.90
2023-01-29T06:18:21.446Z,20.60
2023-01-29T06:19:21.218Z,21.30
2023-01-29T06:20:21.267Z,21.00
2023-01-29T06:21:21.249Z,21.20
2023-01-29T06:22:21.360Z,20.30
2023-01-29T06:23:21.225Z,22.50
2023-01-29T06:24:21.249Z,21.40
2023-01-29T06:25:21.315Z,21.90
2023-01-29T06:26:21.196Z,21.30
2023-01-29T06:27:21.307Z,21.70
2023-01-29T06:28:21.176Z,22.00
2023-01-29T06:29:21.189Z,22.30
2023-01-29T06:30:21.200Z,21.60
2023-01-29T06:31:36.662Z,21.00
2023-01-29T06:32:21.311Z,21.00
2023-01-29T06:33:21.202Z,20.80
2023-01-29T06:34:21.200Z,20.90
2023-01-29T06:35:21.119Z,20.90
2023-01-29T06:36:21.124Z,20.50
2023-01-29T06:37:21.128Z,21.10
2023-01-29T06:38:21.041Z,21.10
2023-01-29T06:39:21.196Z,20.70
2023-01-29T06:40:21.029Z,20.00
2023-01-29T06:41:20.891Z,21.10
2023-01-29T06:42:21.120Z,20.50
2023-01-29T06:43:21.041Z,19.50
2023-01-29T06:44:20.977Z,21.00
2023-01-29T06:45:21.127Z,20.70
2023-01-29T06:46:20.999Z,20.70
2023-01-29T06:47:20.970Z,20.80
2023-01-29T06:48:20.955Z,21.40
2023-01-29T06:49:21.022Z,21.20
2023-01-29T06:50:21.023Z,20.10
2023-01-29T06:51:20.944Z,20.90
2023-01-29T06:52:20.749Z,21.20
2023-01-29T06:53:20.862Z,20.60
2023-01-29T06:54:20.766Z,20.80
2023-01-29T06:55:21.017Z,20.60
2023-01-29T06:56:20.859Z,20.70
2023-01-29T06:57:20.946Z,20.40
2023-01-29T06:58:20.926Z,20.50
2023-01-29T06:59:20.932Z,20.90
2023-01-29T07:00:20.914Z,20.40
2023-01-29T07:01:36.876Z,20.60
2023-01-29T07:02:20.889Z,21.00
2023-01-29T07:03:20.832Z,20.80
2023-01-29T07:04:20.832Z,20.50
2023-01-29T07:05:20.815Z,19.50
2023-01-29T07:06:20.802Z,20.00
2023-01-29T07:07:20.860Z,20.20
2023-01-29T07:08:20.635Z,19.50
2023-01-29T07:09:20.873Z,19.90
2023-01-29T07:10:20.783Z,20.20
2023-01-29T07:11:20.864Z,21.30
2023-01-29T07:12:20.854Z,20.70
2023-01-29T07:13:20.771Z,21.50
2023-01-29T07:14:20.786Z,20.20
2023-01-29T07:15:20.858Z,20.70
2023-01-29T07:16:20.633Z,20.70
2023-01-29T07:17:20.610Z,21.10
2023-01-29T07:18:20.526Z,20.10
2023-01-29T07:19:20.616Z,20.60
2023-01-29T07:20:20.517Z,19.70
2023-01-29T07:21:20.708Z,20.90
2023-01-29T07:22:20.785Z,21.40
2023-01-29T07:23:20.694Z,20.90
2023-01-29T07:24:20.550Z,20.40
2023-01-29T07:25:20.501Z,21.10
2023-01-29T07:26:20.482Z,20.20
2023-01-29T07:27:20.739Z,20.90
2023-01-29T07:28:20.675Z,20.80
2023-01-29T07:29:20.455Z,20.30
2023-01-29T07:30:20.694Z,20.80
2023-01-29T07:31:20.709Z,20.20
2023-01-29T07:32:20.740Z,21.10
2023-01-29T07:33:20.402Z,21.00
2023-01-29T07:34:20.627Z,21.00
2023-01-29T07:35:20.713Z,20.90
2023-01-29T07:36:20.546Z,20.70
2023-01-29T07:37:20.534Z,21.20
2023-01-29T07:38:20.680Z,20.90
2023-01-29T07:39:20.593Z,20.20
2023-01-29T07:40:20.582Z,21.60
2023-01-29T07:41:20.509Z,21.00
2023-01-29T07:42:20.303Z,20.40
2023-01-29T07:43:20.563Z,21.50
2023-01-29T07:44:20.480Z,21.00
2023-01-29T07:45:20.568Z,21.30
2023-01-29T07:46:20.612Z,21.20
2023-01-29T07:47:20.523Z,21.00
2023-01-29T07:48:20.436Z,20.30
2023-01-29T07:49:20.450Z,20.80
2023-01-29T07:50:20.534Z,20.00
2023-01-29T07:51:20.231Z,20.00
2023-01-29T07:52:22.322Z,21.70
2023-01-29T07:53:20.207Z,21.00
2023-01-29T07:54:20.512Z,21.20
2023-01-29T07:55:20.447Z,21.20
2023-01-29T07:56:20.353Z,21.10
2023-01-29T07:57:20.359Z,21.50
2023-01-29T07:58:20.372Z,21.00
2023-01-29T07:59:20.452Z,21.70
2023-01-29T08:00:20.176Z,21.40
2023-01-29T08:01:20.207Z,20.50
2023-01-29T08:02:20.361Z,21.10
2023-01-29T08:03:20.177Z,20.80
2023-01-29T08:04:20.099Z,21.40
2023-01-29T08:05:20.388Z,20.30
2023-01-29T08:06:20.089Z,19.80
2023-01-29T08:07:20.104Z,20.70
2023-01-29T08:08:20.111Z,21.10
2023-01-29T08:09:20.370Z,21.70
2023-01-29T08:10:20.378Z,20.50
2023-01-29T08:11:20.324Z,21.80
2023-01-29T08:12:20.174Z,20.90
2023-01-29T08:13:20.217Z,19.60
2023-01-29T08:14:20.199Z,21.50
2023-01-29T08:15:20.357Z,20.70
2023-01-29T08:16:20.119Z,19.70
2023-01-29T08:17:20.192Z,20.90
2023-01-29T08:18:20.188Z,19.80
2023-01-29T08:19:20.181Z,20.50
2023-01-29T08:20:20.157Z,20.30
2023-01-29T08:21:20.171Z,20.30
2023-01-29T08:22:20.169Z,21.40
2023-01-29T08:23:20.137Z,19.90
2023-01-29T08:24:20.082Z,20.60
2023-01-29T08:25:20.023Z,20.60
2023-01-29T08:26:20.031Z,20.90
2023-01-29T08:27:20.125Z,20.80
2023-01-29T08:28:20.084Z,20.90
2023-01-29T08:29:20.055Z,20.90
2023-01-29T08:30:20.030Z,20.80
2023-01-29T08:31:20.029Z,20.70
2023-01-29T08:32:20.018Z,20.50
2023-01-29T08:33:29.720Z,20.70
2023-01-29T08:34:19.971Z,20.30
2023-01-29T08:35:20.288Z,20.60
2023-01-29T08:36:19.830Z,20.20
2023-01-29T08:37:19.933Z,19.90
2023-01-29T08:38:20.159Z,21.10
2023-01-29T08:39:19.910Z,20.60
2023-01-29T08:40:20.161Z,21.10
2023-01-29T08:41:19.860Z,20.40
2023-01-29T08:42:19.980Z,20.60
2023-01-29T08:43:19.819Z,20.20
2023-01-29T08:44:19.929Z,20.90
2023-01-29T08:45:19.783Z,21.00
2023-01-29T08:46:19.972Z,20.50
2023-01-29T08:47:19.828Z,21.90
2023-01-29T08:48:19.877Z,21.80
2023-01-29T08:49:19.962Z,20.20
2023-01-29T08:50:20.020Z,21.20
2023-01-29T08:51:19.740Z,21.80
2023-01-29T08:52:19.703Z,22.80
2023-01-29T08:53:19.906Z,21.60
2023-01-29T08:54:19.880Z,21.00
2023-01-29T08:55:19.780Z,21.90
2023-01-29T08:56:19.754Z,20.90
2023-01-29T08:57:19.720Z,21.40
2023-01-29T08:58:19.541Z,22.30
2023-01-29T08:59:19.613Z,21.20
2023-01-29T09:00:19.749Z,22.00
2023-01-29T09:01:19.734Z,22.40
2023-01-29T09:02:19.746Z,22.70
2023-01-29T09:03:19.741Z,21.60
2023-01-29T09:04:19.763Z,20.50
2023-01-29T09:05:20.235Z,20.60
2023-01-29T09:06:19.650Z,20.70
2023-01-29T09:07:19.660Z,20.70
2023-01-29T09:08:19.668Z,20.60
2023-01-29T09:09:19.573Z,20.20
2023-01-29T09:10:19.583Z,21.20
2023-01-29T09:11:19.696Z,20.20
2023-01-29T09:12:19.572Z,20.50
2023-01-29T09:13:19.549Z,20.50
2023-01-29T09:14:19.547Z,20.90
2023-01-29T09:15:19.860Z,21.60
2023-01-29T09:16:19.531Z,20.80
2023-01-29T09:17:19.589Z,20.80
2023-01-29T09:18:19.559Z,19.80
2023-01-29T09:19:19.533Z,19.80
2023-01-29T09:20:19.510Z,20.40
2023-01-29T09:21:19.494Z,20.80
2023-01-29T09:22:19.497Z,19.40
2023-01-29T09:23:19.281Z,19.90
2023-01-29T09:24:19.459Z,19.90
2023-01-29T09:25:19.690Z,20.00
2023-01-29T09:26:19.601Z,20.70
2023-01-29T09:27:19.381Z,20.40
2023-01-29T09:28:19.366Z,20.00
2023-01-29T09:29:19.252Z,19.70
2023-01-29T09:30:19.358Z,20.00
2023-01-29T09:31:19.569Z,20.10
2023-01-29T09:32:37.675Z,20.40
2023-01-29T09:33:19.401Z,20.40
2023-01-29T09:34:19.384Z,19.60
2023-01-29T09:35:19.378Z,19.50
2023-01-29T09:36:19.357Z,19.60
2023-01-29T09:37:21.054Z,19.10
2023-01-29T09:38:19.301Z,18.70
2023-01-29T09:39:19.291Z,19.50
2023-01-29T09:40:19.251Z,18.00
2023-01-29T09:41:19.223Z,19.20
2023-01-29T09:42:19.368Z,18.70
2023-01-29T09:43:19.339Z,19.60
2023-01-29T09:44:19.169Z,18.80
2023-01-29T09:45:19.487Z,18.60
2023-01-29T09:46:19.328Z,18.40
2023-01-29T09:47:19.337Z,18.30
2023-01-29T09:48:19.313Z,19.40
2023-01-29T09:49:19.311Z,18.20
2023-01-29T09:50:20.348Z,18.40
2023-01-29T09:51:19.212Z,18.00
2023-01-29T09:52:19.123Z,18.00
2023-01-29T09:53:19.295Z,18.70
2023-01-29T09:54:19.278Z,17.70
2023-01-29T09:55:19.268Z,18.20
2023-01-29T09:56:18.964Z,17.50
2023-01-29T09:57:19.195Z,17.70
2023-01-29T09:58:19.034Z,17.60
2023-01-29T09:59:19.248Z,17.40
2023-01-29T10:00:19.160Z,18.30
2023-01-29T10:01:19.123Z,17.30
2023-01-29T10:02:19.322Z,16.70
2023-01-29T10:03:19.080Z,17.50
2023-01-29T10:04:19.051Z,16.40
2023-01-29T10:05:19.318Z,16.20
2023-01-29T10:06:18.959Z,16.50
2023-01-29T10:07:19.146Z,17.80
2023-01-29T10:08:19.033Z,16.60
2023-01-29T10:09:19.028Z,17.50
2023-01-29T10:10:19.014Z,16.80
2023-01-29T10:11:18.892Z,16.00
2023-01-29T10:12:18.988Z,15.80
2023-01-29T10:13:18.989Z,16.20
2023-01-29T10:14:18.845Z,16.20
2023-01-29T10:15:19.251Z,15.60
2023-01-29T10:16:18.942Z,15.80
2023-01-29T10:17:18.995Z,16.70
2023-01-29T10:18:18.954Z,15.30
2023-01-29T10:19:18.961Z,16.20
2023-01-29T10:20:18.969Z,15.50
2023-01-29T10:21:18.977Z,16.00
2023-01-29T10:22:18.869Z,15.60
2023-01-29T10:23:18.881Z,15.40
2023-01-29T10:24:18.878Z,15.50
2023-01-29T10:25:19.260Z,15.00
2023-01-29T10:26:18.838Z,15.30
2023-01-29T10:27:18.896Z,15.30
2023-01-29T10:28:18.818Z,14.30
2023-01-29T10:29:18.811Z,14.10
2023-01-29T10:30:18.844Z,13.50
2023-01-29T10:31:18.928Z,14.50
2023-01-29T10:32:18.852Z,14.20
2023-01-29T10:33:18.758Z,14.60
2023-01-29T10:34:18.759Z,14.50
2023-01-29T10:35:18.825Z,14.60
2023-01-29T10:36:18.745Z,15.10
2023-01-29T10:37:18.812Z,14.30
2023-01-29T10:38:18.724Z,14.80
2023-01-29T10:39:18.731Z,14.70
2023-01-29T10:40:18.832Z,15.10
2023-01-29T10:41:18.727Z,14.60
2023-01-29T10:42:18.818Z,15.10
2023-01-29T10:43:18.522Z,15.20
2023-01-29T10:44:18.566Z,14.80
2023-01-29T10:45:19.186Z,15.70
2023-01-29T10:46:18.635Z,15.10
2023-01-29T10:47:18.781Z,15.90
2023-01-29T10:48:18.638Z,15.00
2023-01-29T10:49:18.627Z,14.60
2023-01-29T10:50:18.597Z,15.50
2023-01-29T10:51:18.610Z,15.50
2023-01-29T10:52:18.681Z,15.10
2023-01-29T10:53:18.604Z,15.30
2023-01-29T10:54:18.699Z,15.40
2023-01-29T10:55:18.932Z,15.10
2023-01-29T10:56:23.183Z,17.00
2023-01-29T10:57:18.536Z,15.50
2023-01-29T10:58:18.615Z,15.70
2023-01-29T10:59:18.353Z,14.20
2023-01-29T11:00:18.546Z,15.70
2023-01-29T11:01:18.551Z,16.10
2023-01-29T11:02:18.646Z,15.40
2023-01-29T11:03:27.650Z,15.70
2023-01-29T11:04:18.390Z,16.10
2023-01-29T11:05:18.786Z,15.90
2023-01-29T11:06:18.484Z,15.00
2023-01-29T11:07:18.497Z,14.70
2023-01-29T11:08:18.314Z,14.30
2023-01-29T11:09:18.443Z,14.50
2023-01-29T11:10:18.732Z,13.60
2023-01-29T11:11:18.435Z,14.40
2023-01-29T11:12:20.179Z,14.20
2023-01-29T11:13:18.418Z,14.20
2023-01-29T11:14:18.312Z,14.20
2023-01-29T11:15:18.404Z,14.40
2023-01-29T11:16:18.287Z,14.10
2023-01-29T11:17:18.414Z,13.90
2023-01-29T11:18:18.390Z,14.40
2023-01-29T11:19:18.384Z,14.50
2023-01-29T11:20:18.837Z,14.40
2023-01-29T11:21:18.529Z,13.30
2023-01-29T11:22:18.436Z,13.10
2023-01-29T11:23:18.122Z,14.20
2023-01-29T11:24:18.335Z,14.10
2023-01-29T11:25:18.308Z,13.70
2023-01-29T11:26:18.445Z,14.30
2023-01-29T11:27:18.434Z,13.30
2023-01-29T11:28:18.327Z,13.80
2023-01-29T11:29:18.414Z,13.40
2023-01-29T11:30:18.911Z,14.00
2023-01-29T11:31:18.357Z,13.30
2023-01-29T11:32:18.287Z,13.70
2023-01-29T11:33:18.342Z,14.40
2023-01-29T11:34:18.224Z,14.70
2023-01-29T11:35:18.215Z,14.30
2023-01-29T11:36:18.294Z,13.90
2023-01-29T11:37:18.281Z,13.80
2023-01-29T11:38:18.177Z,14.40
2023-01-29T11:39:18.157Z,14.40
2023-01-29T11:40:18.410Z,14.30
2023-01-29T11:41:18.158Z,13.60
2023-01-29T11:42:18.196Z,13.80
2023-01-29T11:43:18.267Z,14.20
2023-01-29T11:44:17.953Z,14.30
2023-01-29T11:45:18.111Z,13.40
2023-01-29T11:46:18.113Z,15.00
2023-01-29T11:47:18.091Z,13.90
2023-01-29T11:48:18.070Z,14.20
2023-01-29T11:49:20.877Z,13.60
2023-01-29T11:50:18.351Z,13.60
2023-01-29T11:51:18.080Z,13.50
2023-01-29T11:52:18.046Z,13.90
2023-01-29T11:53:18.091Z,13.00
2023-01-29T11:54:18.046Z,13.80
2023-01-29T11:55:18.020Z,13.70
2023-01-29T11:56:18.002Z,13.70
2023-01-29T11:57:19.368Z,13.90
2023-01-29T11:58:17.783Z,13.50
2023-01-29T11:59:17.904Z,13.90
2023-01-29T12:00:18.297Z,13.90
2023-01-29T12:01:17.906Z,12.80
2023-01-29T12:02:17.931Z,13.40
2023-01-29T12:03:17.948Z,13.40
2023-01-29T12:04:17.894Z,14.10
2023-01-29T12:05:17.759Z,14.10
2023-01-29T12:06:17.864Z,13.80
2023-01-29T12:07:17.638Z,13.20
2023-01-29T12:08:17.662Z,14.00
2023-01-29T12:09:17.843Z,14.30
2023-01-29T12:10:18.116Z,13.40
2023-01-29T12:11:17.626Z,14.70
2023-01-29T12:12:17.871Z,14.00
2023-01-29T12:13:17.595Z,14.80
2023-01-29T12:14:17.591Z,14.50
2023-01-29T12:15:17.626Z,13.70
2023-01-29T12:16:17.779Z,14.30
2023-01-29T12:17:17.563Z,14.30
2023-01-29T12:18:17.726Z,14.80
2023-01-29T12:19:17.719Z,14.70
2023-01-29T12:20:17.922Z,14.30
2023-01-29T12:21:17.833Z,14.60
2023-01-29T12:22:17.544Z,14.60
2023-01-29T12:23:17.721Z,14.50
2023-01-29T12:24:17.524Z,14.20
2023-01-29T12:25:17.501Z,14.20
2023-01-29T12:26:17.558Z,14.60
2023-01-29T12:27:17.466Z,14.20
2023-01-29T12:28:17.668Z,14.30
2023-01-29T12:29:17.468Z,14.70
2023-01-29T12:30:17.935Z,14.20
2023-01-29T12:31:17.770Z,14.10
2023-01-29T12:32:17.491Z,14.20
2023-01-29T12:33:17.599Z,14.60
2023-01-29T12:34:17.414Z,14.50
2023-01-29T12:35:17.376Z,14.60
2023-01-29T12:36:17.557Z,15.10
2023-01-29T12:37:17.671Z,15.20
2023-01-29T12:38:17.376Z,14.80
2023-01-29T12:39:17.341Z,14.70
2023-01-29T12:40:17.650Z,15.00
2023-01-29T12:41:17.321Z,14.30
2023-01-29T12:42:17.620Z,14.80
2023-01-29T12:43:17.497Z,15.00
2023-01-29T12:44:17.322Z,15.10
2023-01-29T12:45:17.272Z,14.90
2023-01-29T12:46:17.453Z,14.90
2023-01-29T12:47:17.300Z,14.70
2023-01-29T12:48:17.345Z,14.60
2023-01-29T12:49:17.267Z,14.90
2023-01-29T12:50:17.795Z,14.90
2023-01-29T12:51:17.401Z,15.40
2023-01-29T12:52:17.484Z,15.10